Time;durP1;ratioP1;P1;durP2;ratioP2;P2;SDS_P1;SDS_P2;PMS_P1;PMS_P2;Temp;Humidity;BMP_temperature;BMP_pressure;BME280_temperature;BME280_humidity;BME280_pressure;Samples;Min_cycle;Max_cycle;Signal;HPM_P1;HPM_P2
2022/06/12 00:00:16;;;;;;;;;;;;;;;;;;5060638;28;19920;-83
2022/06/12 00:02:43;;;;;;;;;;;;;;;;;;5053675;28;19968;-85
2022/06/12 00:05:08;;;;;;;;;;;;;;;;;;5064589;28;19919;-84
2022/06/12 00:07:34;;;;;;;;;;;;;;;;;;5060226;28;19913;-83
2022/06/12 00:09:59;;;;;;;;;;;;;;;;;;5053397;28;20324;-84
2022/06/12 00:12:24;;;;;;;;;;;;;;;;;;5053039;28;19921;-85
2022/06/12 00:14:51;;;;;;;;;;;;;;;;;;5051933;28;19912;-85
2022/06/12 00:17:16;;;;;;;;;;;;;;;;;;5010100;28;19993;-83
2022/06/12 00:19:44;;;;;;;;;;;;;;;;;;5053626;28;20351;-84
2022/06/12 00:22:09;;;;;;;;;;;;;;;;;;5055573;28;20006;-84
2022/06/12 00:24:35;;;;;;;;;;;;;;;;;;5065789;28;20398;-83
2022/06/12 00:27:03;;;;;;;;;;;;;;;;;;5055708;28;19913;-84
2022/06/12 00:29:29;;;;;;;;;;;;;;;;;;5052531;28;19920;-83
2022/06/12 00:31:54;;;;;;;;;;;;;;;;;;5032901;28;19916;-84
2022/06/12 00:34:19;;;;;;;;;;;;;;;;;;5040425;28;20284;-84
2022/06/12 00:36:45;;;;;;;;;;;;;;;;;;5035435;28;19912;-84
2022/06/12 00:39:10;;;;;;;;;;;;;;;;;;5054344;28;19916;-84
2022/06/12 00:41:36;;;;;;;;;;;;;;;;;;5034853;28;19912;-84
2022/06/12 00:44:01;;;;;;;;;;;;;;;;;;5051866;28;19913;-84
2022/06/12 00:46:26;;;;;;;;;;;;;;;;;;5062702;28;19912;-85
2022/06/12 00:48:52;;;;;;;;;;;;;;;;;;5059840;28;20383;-83
2022/06/12 00:51:17;;;;;;;;;;;;;;;;;;5048832;28;19947;-84
2022/06/12 00:53:43;;;;;;;;;;;;;;;;;;5035446;28;19986;-84
2022/06/12 00:56:08;;;;;;;;;;;;;;;;;;5034259;28;19913;-84
2022/06/12 00:58:34;;;;;;;;;;;;;;;;;;5055485;28;20007;-84
2022/06/12 01:00:59;;;;;;;;;;;;;;;;;;5052138;28;20383;-84
2022/06/12 01:03:25;;;;;;;;;;;;;;;;;;5028641;28;19912;-84
2022/06/12 01:08:35;;;;;;;;;;;;;;;;;;5064681;28;19946;-83
2022/06/12 01:11:00;;;;;;;;;;;;;;;;;;5052851;28;20336;-83
2022/06/12 01:13:25;;;;;;;;;;;;;;;;;;5067915;28;20137;-85
2022/06/12 01:15:51;;;;;;;;;;;;;;;;;;5056530;28;19919;-83
2022/06/12 01:18:16;;;;;;;;;;;;;;;;;;5036580;28;19986;-81
2022/06/12 01:20:42;;;;;;;;;;;;;;;;;;5047562;28;19912;-84
2022/06/12 01:23:07;;;;;;;;;;;;;;;;;;5026876;28;20000;-83
2022/06/12 01:25:33;;;;;;;;;;;;;;;;;;5052456;28;19970;-83
2022/06/12 01:27:58;;;;;;;;;;;;;;;;;;5072891;28;19912;-84
2022/06/12 01:30:23;;;;;;;;;;;;;;;;;;5067614;28;19913;-84
2022/06/12 01:32:49;;;;;;;;;;;;;;;;;;5062076;28;19916;-83
2022/06/12 01:35:14;;;;;;;;;;;;;;;;;;5018410;28;20115;-84
2022/06/12 01:37:40;;;;;;;;;;;;;;;;;;5042586;28;19936;-84
2022/06/12 01:40:05;;;;;;;;;;;;;;;;;;5054047;28;20286;-85
2022/06/12 01:42:31;;;;;;;;;;;;;;;;;;5067827;28;19916;-84
2022/06/12 01:44:56;;;;;;;;;;;;;;;;;;5054247;28;19919;-85
2022/06/12 01:47:21;;;;;;;;;;;;;;;;;;5051126;28;19966;-84
2022/06/12 01:49:47;;;;;;;;;;;;;;;;;;5036956;28;19951;-84
2022/06/12 01:52:12;;;;;;;;;;;;;;;;;;5051027;28;19958;-83
2022/06/12 01:54:38;;;;;;;;;;;;;;;;;;5040536;28;19923;-84
2022/06/12 01:57:03;;;;;;;;;;;;;;;;;;5046354;28;19912;-85
2022/06/12 01:59:29;;;;;;;;;;;;;;;;;;5054680;28;19920;-84
2022/06/12 02:01:54;;;;;;;;;;;;;;;;;;5036649;28;20276;-83
2022/06/12 02:04:20;;;;;;;;;;;;;;;;;;5072325;28;19956;-84
2022/06/12 02:06:46;;;;;;;;;;;;;;;;;;5063463;28;19915;-85
2022/06/12 02:09:11;;;;;;;;;;;;;;;;;;5062072;28;19963;-85
2022/06/12 02:14:21;;;;;;;;;;;;;;;;;;5044376;28;19916;-85
2022/06/12 02:16:47;;;;;;;;;;;;;;;;;;5022042;28;20257;-84
2022/06/12 02:19:12;;;;;;;;;;;;;;;;;;5058372;28;20294;-84
2022/06/12 02:21:38;;;;;;;;;;;;;;;;;;5058076;28;19919;-83
2022/06/12 02:24:03;;;;;;;;;;;;;;;;;;5054717;28;19919;-84
2022/06/12 02:26:28;;;;;;;;;;;;;;;;;;5052428;28;19944;-85
2022/06/12 02:28:54;;;;;;;;;;;;;;;;;;5057166;28;19932;-85
2022/06/12 02:31:20;;;;;;;;;;;;;;;;;;5058288;28;20379;-85
2022/06/12 02:33:45;;;;;;;;;;;;;;;;;;5059299;28;20342;-85
2022/06/12 02:36:11;;;;;;;;;;;;;;;;;;5071889;28;20370;-84
2022/06/12 02:38:36;;;;;;;;;;;;;;;;;;5057447;28;19917;-84
2022/06/12 02:41:01;;;;;;;;;;;;;;;;;;5062646;28;20301;-85
2022/06/12 02:43:27;;;;;;;;;;;;;;;;;;5052832;28;19969;-84
2022/06/12 02:45:53;;;;;;;;;;;;;;;;;;5063356;28;19945;-84
2022/06/12 02:48:18;;;;;;;;;;;;;;;;;;5070138;28;20279;-84
2022/06/12 02:50:43;;;;;;;;;;;;;;;;;;5057519;28;19909;-84
2022/06/12 02:53:09;;;;;;;;;;;;;;;;;;5037261;28;19921;-84
2022/06/12 02:55:34;;;;;;;;;;;;;;;;;;5070903;28;19913;-84
2022/06/12 02:58:00;;;;;;;;;;;;;;;;;;5050990;28;20558;-83
2022/06/12 03:00:25;;;;;;;;;;;;;;;;;;5069181;28;19912;-85
2022/06/12 03:02:50;;;;;;;;;;;;;;;;;;5064402;28;19909;-84
2022/06/12 03:05:19;;;;;;;;;;;;;;;;;;5054031;28;19913;-83
2022/06/12 03:07:44;;;;;;;;;;;;;;;;;;5071699;28;19917;-84
2022/06/12 03:10:10;;;;;;;;;;;;;;;;;;5059148;28;20392;-84
2022/06/12 03:12:35;;;;;;;;;;;;;;;;;;5055562;28;19912;-83
2022/06/12 03:15:00;;;;;;;;;;;;;;;;;;5067059;28;19937;-83
2022/06/12 03:17:26;;;;;;;;;;;;;;;;;;5035409;28;20299;-83
2022/06/12 03:19:53;;;;;;;;;;;;;;;;;;5054349;28;19916;-83
2022/06/12 03:22:19;;;;;;;;;;;;;;;;;;5056936;28;20439;-84
2022/06/12 03:24:44;;;;;;;;;;;;;;;;;;5053296;28;19959;-84
2022/06/12 03:27:10;;;;;;;;;;;;;;;;;;5066954;28;19916;-84
2022/06/12 03:29:35;;;;;;;;;;;;;;;;;;5054980;28;19931;-83
2022/06/12 03:32:01;;;;;;;;;;;;;;;;;;5059888;28;20011;-85
2022/06/12 03:34:26;;;;;;;;;;;;;;;;;;5056658;28;19947;-85
2022/06/12 03:36:51;;;;;;;;;;;;;;;;;;5053226;28;19916;-83
2022/06/12 03:39:17;;;;;;;;;;;;;;;;;;5055719;28;20015;-84
2022/06/12 03:41:42;;;;;;;;;;;;;;;;;;5071277;28;19915;-85
2022/06/12 03:44:12;;;;;;;;;;;;;;;;;;5053486;28;19913;-85
2022/06/12 03:46:37;;;;;;;;;;;;;;;;;;5058356;28;19948;-84
2022/06/12 03:49:02;;;;;;;;;;;;;;;;;;5054503;28;19919;-84
2022/06/12 03:51:28;;;;;;;;;;;;;;;;;;5059926;28;19979;-84
2022/06/12 03:53:53;;;;;;;;;;;;;;;;;;5072109;28;19916;-84
2022/06/12 03:59:03;;;;;;;;;;;;;;;;;;5065804;28;19923;-84
2022/06/12 04:01:28;;;;;;;;;;;;;;;;;;5036753;28;20291;-84
2022/06/12 04:03:54;;;;;;;;;;;;;;;;;;5032056;28;19999;-83
2022/06/12 04:06:19;;;;;;;;;;;;;;;;;;5073561;28;20332;-84
2022/06/12 04:08:45;;;;;;;;;;;;;;;;;;5074885;28;20016;-83
2022/06/12 04:11:10;;;;;;;;;;;;;;;;;;5075187;28;19919;-85
2022/06/12 04:13:35;;;;;;;;;;;;;;;;;;5058989;28;19913;-83
2022/06/12 04:16:01;;;;;;;;;;;;;;;;;;5054180;28;19912;-83
2022/06/12 04:18:26;;;;;;;;;;;;;;;;;;5052445;28;19916;-82
2022/06/12 04:20:54;;;;;;;;;;;;;;;;;;5045315;28;20295;-83
2022/06/12 04:23:20;;;;;;;;;;;;;;;;;;5065171;28;19913;-84
2022/06/12 04:25:45;;;;;;;;;;;;;;;;;;5085385;28;19935;-82
2022/06/12 04:28:10;;;;;;;;;;;;;;;;;;5035641;28;20280;-84
2022/06/12 04:30:36;;;;;;;;;;;;;;;;;;5082773;28;19916;-83
2022/06/12 04:33:04;;;;;;;;;;;;;;;;;;5038394;28;20287;-84
2022/06/12 04:35:35;;;;;;;;;;;;;;;;;;5057208;28;19939;-82
2022/06/12 04:38:01;;;;;;;;;;;;;;;;;;5074058;28;19926;-83
2022/06/12 04:40:26;;;;;;;;;;;;;;;;;;5062189;28;19949;-83
2022/06/12 04:42:53;;;;;;;;;;;;;;;;;;5043293;28;19913;-84
2022/06/12 04:45:18;;;;;;;;;;;;;;;;;;5046699;28;19919;-82
2022/06/12 04:47:44;;;;;;;;;;;;;;;;;;5060981;28;20182;-84
2022/06/12 04:50:09;;;;;;;;;;;;;;;;;;5053641;28;19916;-86
2022/06/12 04:52:34;;;;;;;;;;;;;;;;;;5055016;28;20374;-84
2022/06/12 04:55:00;;;;;;;;;;;;;;;;;;5061302;28;20008;-85
2022/06/12 04:57:25;;;;;;;;;;;;;;;;;;5042871;28;19980;-85
2022/06/12 04:59:51;;;;;;;;;;;;;;;;;;5054920;28;20015;-85
2022/06/12 05:02:17;;;;;;;;;;;;;;;;;;5038692;28;19912;-84
2022/06/12 05:04:42;;;;;;;;;;;;;;;;;;5051916;28;19919;-84
2022/06/12 05:07:07;;;;;;;;;;;;;;;;;;5055086;28;19916;-84
2022/06/12 05:09:33;;;;;;;;;;;;;;;;;;5050710;28;19917;-84
2022/06/12 05:11:58;;;;;;;;;;;;;;;;;;5055789;28;19918;-83
2022/06/12 05:14:27;;;;;;;;;;;;;;;;;;5029789;28;20300;-84
2022/06/12 05:16:53;;;;;;;;;;;;;;;;;;5019491;28;20399;-83
2022/06/12 05:19:18;;;;;;;;;;;;;;;;;;5053324;28;19916;-84
2022/06/12 05:21:44;;;;;;;;;;;;;;;;;;5056127;28;20375;-83
2022/06/12 05:24:09;;;;;;;;;;;;;;;;;;5053025;28;20348;-84
2022/06/12 05:26:35;;;;;;;;;;;;;;;;;;5052685;28;19927;-85
2022/06/12 05:29:00;;;;;;;;;;;;;;;;;;5038481;28;20288;-85
2022/06/12 05:31:25;;;;;;;;;;;;;;;;;;5039134;28;19972;-83
2022/06/12 05:33:53;;;;;;;;;;;;;;;;;;5056339;28;19909;-86
2022/06/12 05:36:19;;;;;;;;;;;;;;;;;;5040992;28;19913;-84
2022/06/12 05:38:45;;;;;;;;;;;;;;;;;;5076094;28;19916;-83
2022/06/12 05:41:10;;;;;;;;;;;;;;;;;;5044967;28;19917;-84
2022/06/12 05:43:37;;;;;;;;;;;;;;;;;;5059904;28;19919;-84
2022/06/12 05:46:02;;;;;;;;;;;;;;;;;;5039175;28;19962;-83
2022/06/12 05:48:27;;;;;;;;;;;;;;;;;;5062881;28;19917;-85
2022/06/12 05:50:53;;;;;;;;;;;;;;;;;;5075849;28;19920;-84
2022/06/12 05:53:18;;;;;;;;;;;;;;;;;;5100823;22;19939;-79
2022/06/12 05:55:44;;;;;;;;;;;;;;;;;;5074302;28;20351;-80
2022/06/12 05:58:09;;;;;;;;;;;;;;;;;;5084992;28;19912;-80
2022/06/12 06:00:38;;;;;;;;;;;;;;;;;;5040291;28;19912;-80
2022/06/12 06:03:03;;;;;;;;;;;;;;;;;;5081544;28;19919;-79
2022/06/12 06:05:29;;;;;;;;;;;;;;;;;;5060849;28;20326;-77
2022/06/12 06:07:54;;;;;;;;;;;;;;;;;;5101527;28;19915;-79
2022/06/12 06:10:20;;;;;;;;;;;;;;;;;;5106926;28;20382;-80
2022/06/12 06:12:45;;;;;;;;;;;;;;;;;;5110491;28;19933;-80
2022/06/12 06:15:11;;;;;;;;;;;;;;;;;;5101211;28;20312;-79
2022/06/12 06:17:36;;;;;;;;;;;;;;;;;;5074322;28;20294;-79
2022/06/12 06:20:02;;;;;;;;;;;;;;;;;;5075053;28;19916;-79
2022/06/12 06:22:27;;;;;;;;;;;;;;;;;;5089603;28;19912;-80
2022/06/12 06:24:53;;;;;;;;;;;;;;;;;;5094987;28;19912;-80
2022/06/12 06:27:18;;;;;;;;;;;;;;;;;;5096784;28;20394;-78
2022/06/12 06:29:44;;;;;;;;;;;;;;;;;;5099992;28;20248;-79
2022/06/12 06:32:11;;;;;;;;;;;;;;;;;;5075761;28;20017;-80
2022/06/12 06:34:37;;;;;;;;;;;;;;;;;;5077061;28;19912;-81
2022/06/12 06:37:03;;;;;;;;;;;;;;;;;;5112859;28;20006;-79
2022/06/12 06:39:28;;;;;;;;;;;;;;;;;;5095086;28;19919;-79
2022/06/12 06:41:54;;;;;;;;;;;;;;;;;;5092028;28;20321;-78
2022/06/12 06:47:03;;;;;;;;;;;;;;;;;;5096758;28;19916;-78
2022/06/12 06:49:29;;;;;;;;;;;;;;;;;;5091078;28;19919;-79
2022/06/12 06:51:55;;;;;;;;;;;;;;;;;;5090359;28;19964;-79
2022/06/12 06:54:20;;;;;;;;;;;;;;;;;;5092191;28;20010;-79
2022/06/12 06:56:46;;;;;;;;;;;;;;;;;;5077372;28;20414;-80
2022/06/12 06:59:12;;;;;;;;;;;;;;;;;;5080137;28;19939;-78
2022/06/12 07:01:37;;;;;;;;;;;;;;;;;;5063870;28;19987;-78
2022/06/12 07:04:03;;;;;;;;;;;;;;;;;;5076680;28;19911;-78
2022/06/12 07:06:28;;;;;;;;;;;;;;;;;;5062776;28;20297;-79
2022/06/12 07:08:54;;;;;;;;;;;;;;;;;;5095450;28;19908;-78
2022/06/12 07:11:19;;;;;;;;;;;;;;;;;;5080446;28;20264;-79
2022/06/12 07:13:45;;;;;;;;;;;;;;;;;;5078019;28;19916;-79
2022/06/12 07:16:11;;;;;;;;;;;;;;;;;;5081973;28;19908;-79
2022/06/12 07:18:36;;;;;;;;;;;;;;;;;;5096870;28;19915;-80
2022/06/12 07:21:02;;;;;;;;;;;;;;;;;;5093696;28;19912;-80
2022/06/12 07:23:28;;;;;;;;;;;;;;;;;;5075825;28;19934;-80
2022/06/12 07:25:53;;;;;;;;;;;;;;;;;;5076160;28;20386;-80
2022/06/12 07:28:18;;;;;;;;;;;;;;;;;;5079004;28;19984;-79
2022/06/12 07:30:45;;;;;;;;;;;;;;;;;;5093617;28;19917;-79
2022/06/12 07:33:11;;;;;;;;;;;;;;;;;;5096313;28;19912;-79
2022/06/12 07:35:37;;;;;;;;;;;;;;;;;;5063689;28;19919;-79
2022/06/12 07:38:02;;;;;;;;;;;;;;;;;;5076736;28;20023;-79
2022/06/12 07:40:31;;;;;;;;;;;;;;;;;;5085790;28;19916;-79
2022/06/12 07:42:56;;;;;;;;;;;;;;;;;;5078387;28;20010;-80
2022/06/12 07:45:22;;;;;;;;;;;;;;;;;;5080586;28;19958;-78
2022/06/12 07:47:47;;;;;;;;;;;;;;;;;;5080143;28;20032;-80
2022/06/12 07:50:13;;;;;;;;;;;;;;;;;;5093457;28;19957;-80
2022/06/12 07:52:39;;;;;;;;;;;;;;;;;;5096661;28;19916;-79
2022/06/12 07:55:04;;;;;;;;;;;;;;;;;;5098494;28;20003;-78
2022/06/12 07:57:30;;;;;;;;;;;;;;;;;;5075359;28;19920;-79
2022/06/12 07:59:55;;;;;;;;;;;;;;;;;;5062345;28;19916;-78
2022/06/12 08:02:21;;;;;;;;;;;;;;;;;;5050355;28;19912;-78
2022/06/12 08:04:47;;;;;;;;;;;;;;;;;;5075320;28;19955;-79
2022/06/12 08:07:12;;;;;;;;;;;;;;;;;;5094513;28;19919;-78
2022/06/12 08:09:38;;;;;;;;;;;;;;;;;;5092809;28;19935;-80
2022/06/12 08:12:03;;;;;;;;;;;;;;;;;;5096398;28;19916;-80
2022/06/12 08:14:29;;;;;;;;;;;;;;;;;;5088733;28;20259;-79
2022/06/12 08:16:54;;;;;;;;;;;;;;;;;;5109336;28;20007;-79
2022/06/12 08:22:04;;;;;;;;;;;;;;;;;;5095992;28;19919;-79
2022/06/12 08:24:30;;;;;;;;;;;;;;;;;;5075632;28;19912;-79
2022/06/12 08:27:05;;;;;;;;;;;;;;;;;;5108699;28;19912;-81
2022/06/12 08:29:34;;;;;;;;;;;;;;;;;;5058195;28;19985;-80
2022/06/12 08:32:02;;;;;;;;;;;;;;;;;;5049718;28;19947;-80
2022/06/12 08:34:27;;;;;;;;;;;;;;;;;;5086014;28;20006;-80
2022/06/12 08:36:53;;;;;;;;;;;;;;;;;;5078797;28;19948;-80
2022/06/12 08:39:18;;;;;;;;;;;;;;;;;;5078983;28;19976;-80
2022/06/12 08:41:47;;;;;;;;;;;;;;;;;;5061538;28;19912;-80
2022/06/12 08:44:12;;;;;;;;;;;;;;;;;;5095012;28;19919;-80
2022/06/12 08:46:38;;;;;;;;;;;;;;;;;;5075714;28;19912;-79
2022/06/12 08:49:03;;;;;;;;;;;;;;;;;;5111534;28;19912;-80
2022/06/12 08:51:32;;;;;;;;;;;;;;;;;;5061956;28;19957;-79
2022/06/12 08:54:04;;;;;;;;;;;;;;;;;;5074684;28;19920;-79
2022/06/12 08:56:30;;;;;;;;;;;;;;;;;;5078361;28;19916;-80
2022/06/12 08:59:05;;;;;;;;;;;;;;;;;;5076482;28;19915;-79
2022/06/12 09:01:31;;;;;;;;;;;;;;;;;;5105637;28;19999;-80
2022/06/12 09:03:56;;;;;;;;;;;;;;;;;;5079094;28;19919;-79
2022/06/12 09:06:22;;;;;;;;;;;;;;;;;;5066334;28;20403;-79
2022/06/12 09:08:50;;;;;;;;;;;;;;;;;;5058324;28;19912;-78
2022/06/12 09:11:16;;;;;;;;;;;;;;;;;;5060827;28;19915;-80
2022/06/12 09:13:41;;;;;;;;;;;;;;;;;;5061864;28;19912;-80
2022/06/12 09:16:07;;;;;;;;;;;;;;;;;;5057944;28;19922;-81
2022/06/12 09:18:32;;;;;;;;;;;;;;;;;;5075933;28;19951;-79
2022/06/12 09:20:58;;;;;;;;;;;;;;;;;;5063218;28;19919;-80
2022/06/12 09:23:24;;;;;;;;;;;;;;;;;;5059363;28;19912;-80
2022/06/12 09:25:50;;;;;;;;;;;;;;;;;;5095325;28;20426;-79
2022/06/12 09:28:15;;;;;;;;;;;;;;;;;;5091526;28;19931;-80
2022/06/12 09:30:41;;;;;;;;;;;;;;;;;;5077910;28;20002;-79
2022/06/12 09:33:07;;;;;;;;;;;;;;;;;;5057694;28;19919;-80
2022/06/12 09:35:32;;;;;;;;;;;;;;;;;;5053303;28;19912;-79
2022/06/12 09:40:42;;;;;;;;;;;;;;;;;;5091588;28;19916;-80
2022/06/12 09:43:08;;;;;;;;;;;;;;;;;;5077695;28;19919;-79
2022/06/12 09:45:33;;;;;;;;;;;;;;;;;;5060801;28;19912;-80
2022/06/12 09:47:59;;;;;;;;;;;;;;;;;;5073943;28;19919;-80
2022/06/12 09:50:24;;;;;;;;;;;;;;;;;;5091412;28;19968;-81
2022/06/12 09:52:50;;;;;;;;;;;;;;;;;;5081151;28;19912;-80
2022/06/12 09:55:15;;;;;;;;;;;;;;;;;;5094284;28;19976;-81
2022/06/12 09:57:41;;;;;;;;;;;;;;;;;;5094889;28;20366;-80
2022/06/12 10:00:06;;;;;;;;;;;;;;;;;;5091201;28;19924;-80
2022/06/12 10:02:38;;;;;;;;;;;;;;;;;;5078598;28;20329;-80
2022/06/12 10:05:04;;;;;;;;;;;;;;;;;;5073812;28;19913;-79
2022/06/12 10:07:30;;;;;;;;;;;;;;;;;;5090570;28;20677;-79
2022/06/12 10:09:56;;;;;;;;;;;;;;;;;;5070731;28;20461;-81
2022/06/12 10:12:21;;;;;;;;;;;;;;;;;;5047477;28;19955;-80
2022/06/12 10:14:47;;;;;;;;;;;;;;;;;;5087339;28;19959;-80
2022/06/12 10:17:12;;;;;;;;;;;;;;;;;;5074144;28;20363;-80
2022/06/12 10:19:38;;;;;;;;;;;;;;;;;;5073386;28;19958;-80
2022/06/12 10:22:03;;;;;;;;;;;;;;;;;;5096434;28;19916;-80
2022/06/12 10:24:29;;;;;;;;;;;;;;;;;;5071488;28;19963;-80
2022/06/12 10:26:54;;;;;;;;;;;;;;;;;;5097115;28;20306;-80
2022/06/12 10:29:24;;;;;;;;;;;;;;;;;;5066373;28;20002;-80
2022/06/12 10:31:53;;;;;;;;;;;;;;;;;;5062333;28;19965;-79
2022/06/12 10:34:18;;;;;;;;;;;;;;;;;;5097171;28;19912;-81
2022/06/12 10:36:44;;;;;;;;;;;;;;;;;;5102576;28;19912;-81
2022/06/12 10:39:09;;;;;;;;;;;;;;;;;;5097260;28;19915;-81
2022/06/12 10:41:35;;;;;;;;;;;;;;;;;;5089918;28;20255;-81
2022/06/12 10:44:01;;;;;;;;;;;;;;;;;;5072919;28;20464;-81
2022/06/12 10:46:26;;;;;;;;;;;;;;;;;;5054353;28;20006;-82
2022/06/12 10:48:52;;;;;;;;;;;;;;;;;;5077012;28;20367;-80
2022/06/12 10:51:17;;;;;;;;;;;;;;;;;;5079715;28;20341;-80
2022/06/12 10:53:43;;;;;;;;;;;;;;;;;;5063453;28;19998;-80
2022/06/12 10:56:09;;;;;;;;;;;;;;;;;;5094873;28;19965;-81
2022/06/12 10:58:34;;;;;;;;;;;;;;;;;;5094444;28;23283;-81
2022/06/12 11:01:00;;;;;;;;;;;;;;;;;;5117381;28;19912;-80
2022/06/12 11:03:26;;;;;;;;;;;;;;;;;;5097398;28;19911;-80
2022/06/12 11:05:52;;;;;;;;;;;;;;;;;;5077158;28;19964;-81
2022/06/12 11:08:17;;;;;;;;;;;;;;;;;;5099206;28;19920;-80
2022/06/12 11:10:43;;;;;;;;;;;;;;;;;;5081091;28;20385;-81
2022/06/12 11:13:09;;;;;;;;;;;;;;;;;;5094768;28;19919;-79
2022/06/12 11:15:35;;;;;;;;;;;;;;;;;;5096724;28;20363;-81
2022/06/12 11:18:00;;;;;;;;;;;;;;;;;;5064713;28;19912;-80
2022/06/12 11:20:26;;;;;;;;;;;;;;;;;;5074318;28;20296;-81
2022/06/12 11:22:52;;;;;;;;;;;;;;;;;;5101548;28;20238;-80
2022/06/12 11:25:18;;;;;;;;;;;;;;;;;;5064436;28;19912;-80
2022/06/12 11:27:43;;;;;;;;;;;;;;;;;;5093632;28;19912;-82
2022/06/12 11:30:15;;;;;;;;;;;;;;;;;;5089239;28;20344;-82
2022/06/12 11:32:40;;;;;;;;;;;;;;;;;;5053477;28;19912;-80
2022/06/12 11:35:06;;;;;;;;;;;;;;;;;;5072299;28;19961;-80
2022/06/12 11:37:31;;;;;;;;;;;;;;;;;;5093911;28;20313;-80
2022/06/12 11:40:00;;;;;;;;;;;;;;;;;;5062498;28;19986;-81
2022/06/12 11:42:25;;;;;;;;;;;;;;;;;;5104458;28;20371;-81
2022/06/12 11:44:51;;;;;;;;;;;;;;;;;;5096143;28;20011;-81
2022/06/12 11:47:16;;;;;;;;;;;;;;;;;;5073975;28;19963;-79
2022/06/12 11:49:42;;;;;;;;;;;;;;;;;;5075337;28;20007;-80
2022/06/12 11:52:07;;;;;;;;;;;;;;;;;;5103354;28;20391;-80
2022/06/12 11:54:33;;;;;;;;;;;;;;;;;;5101088;22;20372;-78
2022/06/12 11:56:58;;;;;;;;;;;;;;;;;;5053171;28;19931;-77
2022/06/12 11:59:24;;;;;;;;;;;;;;;;;;5037331;28;19921;-77
2022/06/12 12:01:52;;;;;;;;;;;;;;;;;;5049545;28;19952;-79
2022/06/12 12:04:17;;;;;;;;;;;;;;;;;;5038934;28;20426;-78
2022/06/12 12:06:42;;;;;;;;;;;;;;;;;;5007458;28;19913;-77
2022/06/12 12:09:08;;;;;;;;;;;;;;;;;;5036477;28;19924;-77
2022/06/12 12:11:33;;;;;;;;;;;;;;;;;;5018773;28;20372;-80
2022/06/12 12:13:58;;;;;;;;;;;;;;;;;;5032570;28;20296;-77
2022/06/12 12:16:24;;;;;;;;;;;;;;;;;;5019579;28;19966;-78
2022/06/12 12:18:49;;;;;;;;;;;;;;;;;;5032300;28;19917;-79
2022/06/12 12:21:15;;;;;;;;;;;;;;;;;;5050023;28;20380;-78
2022/06/12 12:23:40;;;;;;;;;;;;;;;;;;5013628;28;19917;-78
2022/06/12 12:26:05;;;;;;;;;;;;;;;;;;5037320;28;20292;-76
2022/06/12 12:28:31;;;;;;;;;;;;;;;;;;5043919;28;19917;-76
2022/06/12 12:30:56;;;;;;;;;;;;;;;;;;5016403;28;19917;-78
2022/06/12 12:33:22;;;;;;;;;;;;;;;;;;5017791;28;19912;-78
2022/06/12 12:41:16;;;;;;;;;;;;;;;;;;5043269;28;19943;-79
2022/06/12 12:43:41;;;;;;;;;;;;;;;;;;5046917;28;19949;-77
2022/06/12 12:46:07;;;;;;;;;;;;;;;;;;5038181;28;20360;-78
2022/06/12 12:48:32;;;;;;;;;;;;;;;;;;5035894;28;19913;-77
2022/06/12 12:51:00;;;;;;;;;;;;;;;;;;5038862;28;19917;-80
2022/06/12 12:53:26;;;;;;;;;;;;;;;;;;5036954;28;20462;-79
2022/06/12 12:55:51;;;;;;;;;;;;;;;;;;5032652;28;19916;-78
2022/06/12 12:58:17;;;;;;;;;;;;;;;;;;5046070;28;20300;-77
2022/06/12 13:00:43;;;;;;;;;;;;;;;;;;5010411;28;20303;-80
2022/06/12 13:03:09;;;;;;;;;;;;;;;;;;5031053;28;19921;-77
2022/06/12 13:05:34;;;;;;;;;;;;;;;;;;5049090;28;19921;-78
2022/06/12 13:08:00;;;;;;;;;;;;;;;;;;5034932;28;19916;-79
2022/06/12 13:10:25;;;;;;;;;;;;;;;;;;5031699;28;19923;-79
2022/06/12 13:12:51;;;;;;;;;;;;;;;;;;5033323;28;20308;-78
2022/06/12 13:15:16;;;;;;;;;;;;;;;;;;5032220;28;19939;-77
2022/06/12 13:17:42;;;;;;;;;;;;;;;;;;5052302;28;20332;-77
2022/06/12 13:20:07;;;;;;;;;;;;;;;;;;5034953;28;20000;-79
2022/06/12 13:22:34;;;;;;;;;;;;;;;;;;5047709;28;20214;-80
2022/06/12 13:25:00;;;;;;;;;;;;;;;;;;5019068;28;19992;-79
2022/06/12 13:27:25;;;;;;;;;;;;;;;;;;5020361;28;19913;-77
2022/06/12 13:29:50;;;;;;;;;;;;;;;;;;5020465;28;20371;-78
2022/06/12 13:32:16;;;;;;;;;;;;;;;;;;5030957;28;19932;-79
2022/06/12 13:34:41;;;;;;;;;;;;;;;;;;5046409;28;20397;-79
2022/06/12 13:37:07;;;;;;;;;;;;;;;;;;5053747;28;19917;-78
2022/06/12 13:39:32;;;;;;;;;;;;;;;;;;5037426;28;19913;-78
2022/06/12 13:41:57;;;;;;;;;;;;;;;;;;5049919;28;19913;-77
2022/06/12 13:44:23;;;;;;;;;;;;;;;;;;5039246;28;19920;-75
2022/06/12 13:46:48;;;;;;;;;;;;;;;;;;5041886;28;19925;-76
2022/06/12 13:49:14;;;;;;;;;;;;;;;;;;5049878;28;19909;-76
2022/06/12 13:51:39;;;;;;;;;;;;;;;;;;5034267;28;19920;-75
2022/06/12 13:54:04;;;;;;;;;;;;;;;;;;5025224;28;20029;-78
2022/06/12 13:56:31;;;;;;;;;;;;;;;;;;5026923;28;20339;-78
2022/06/12 13:58:56;;;;;;;;;;;;;;;;;;5047747;28;19939;-79
2022/06/12 14:01:22;;;;;;;;;;;;;;;;;;5034599;28;19921;-78
2022/06/12 14:03:47;;;;;;;;;;;;;;;;;;5043912;28;19940;-77
2022/06/12 14:06:13;;;;;;;;;;;;;;;;;;5047832;28;19913;-77
2022/06/12 14:08:38;;;;;;;;;;;;;;;;;;5040345;28;19924;-76
2022/06/12 14:11:03;;;;;;;;;;;;;;;;;;5027494;28;19935;-78
2022/06/12 14:13:29;;;;;;;;;;;;;;;;;;5059321;28;20354;-76
2022/06/12 14:15:57;;;;;;;;;;;;;;;;;;5036555;28;19917;-79
2022/06/12 14:18:22;;;;;;;;;;;;;;;;;;5049711;28;20387;-78
2022/06/12 14:20:48;;;;;;;;;;;;;;;;;;5021682;28;19923;-77
2022/06/12 14:23:13;;;;;;;;;;;;;;;;;;5052304;28;19913;-78
2022/06/12 14:25:39;;;;;;;;;;;;;;;;;;5048464;28;20001;-78
2022/06/12 14:28:04;;;;;;;;;;;;;;;;;;5031620;28;19963;-75
2022/06/12 14:30:30;;;;;;;;;;;;;;;;;;5049700;28;19920;-76
2022/06/12 14:32:55;;;;;;;;;;;;;;;;;;5053044;28;19908;-78
2022/06/12 14:35:21;;;;;;;;;;;;;;;;;;5048917;28;19913;-77
2022/06/12 14:37:46;;;;;;;;;;;;;;;;;;5051468;28;19920;-77
2022/06/12 14:40:12;;;;;;;;;;;;;;;;;;5053341;28;19971;-75
2022/06/12 14:42:37;;;;;;;;;;;;;;;;;;5017603;28;19913;-78
2022/06/12 14:45:03;;;;;;;;;;;;;;;;;;5001631;28;19912;-78
2022/06/12 14:47:28;;;;;;;;;;;;;;;;;;5035620;28;20454;-79
2022/06/12 14:49:53;;;;;;;;;;;;;;;;;;5044489;28;19909;-79
2022/06/12 14:52:27;;;;;;;;;;;;;;;;;;5037020;28;19970;-78
2022/06/12 14:54:53;;;;;;;;;;;;;;;;;;5050413;28;19917;-78
2022/06/12 14:57:18;;;;;;;;;;;;;;;;;;5051524;28;19920;-78
2022/06/12 14:59:44;;;;;;;;;;;;;;;;;;5033724;28;19980;-77
2022/06/12 15:02:09;;;;;;;;;;;;;;;;;;5017650;28;19913;-75
2022/06/12 15:04:35;;;;;;;;;;;;;;;;;;5038067;28;19913;-76
2022/06/12 15:07:00;;;;;;;;;;;;;;;;;;5039605;28;19917;-76
2022/06/12 15:09:25;;;;;;;;;;;;;;;;;;5036550;28;20295;-77
2022/06/12 15:11:51;;;;;;;;;;;;;;;;;;5050809;28;19916;-77
2022/06/12 15:14:17;;;;;;;;;;;;;;;;;;5050261;28;19920;-77
2022/06/12 15:16:42;;;;;;;;;;;;;;;;;;5048394;28;20187;-76
2022/06/12 15:19:07;;;;;;;;;;;;;;;;;;5022348;28;20325;-77
2022/06/12 15:21:34;;;;;;;;;;;;;;;;;;5047415;28;19921;-76
2022/06/12 15:24:00;;;;;;;;;;;;;;;;;;5046182;28;19958;-78
2022/06/12 15:31:54;;;;;;;;;;;;;;;;;;5043232;28;19941;-79
2022/06/12 15:34:19;;;;;;;;;;;;;;;;;;5035858;28;19948;-78
2022/06/12 15:36:44;;;;;;;;;;;;;;;;;;5035970;28;20191;-78
2022/06/12 15:39:10;;;;;;;;;;;;;;;;;;5047572;28;20004;-76
2022/06/12 15:41:38;;;;;;;;;;;;;;;;;;5050064;28;19992;-76
2022/06/12 15:44:04;;;;;;;;;;;;;;;;;;5032521;28;20007;-76
2022/06/12 15:46:29;;;;;;;;;;;;;;;;;;5036302;28;19940;-77
2022/06/12 15:48:56;;;;;;;;;;;;;;;;;;5035654;28;19971;-75
2022/06/12 15:51:21;;;;;;;;;;;;;;;;;;5035551;28;19921;-82
2022/06/12 15:53:47;;;;;;;;;;;;;;;;;;5018832;28;20277;-76
2022/06/12 15:56:12;;;;;;;;;;;;;;;;;;5050300;28;19947;-74
2022/06/12 15:58:39;;;;;;;;;;;;;;;;;;5036892;28;19913;-77
2022/06/12 16:01:04;;;;;;;;;;;;;;;;;;5034234;28;20299;-75
2022/06/12 16:03:30;;;;;;;;;;;;;;;;;;5021352;28;19913;-77
2022/06/12 16:05:55;;;;;;;;;;;;;;;;;;5050864;28;20413;-75
2022/06/12 16:08:21;;;;;;;;;;;;;;;;;;5036893;28;19912;-79
2022/06/12 16:10:46;;;;;;;;;;;;;;;;;;5006639;28;19913;-77
2022/06/12 16:13:12;;;;;;;;;;;;;;;;;;5021642;28;19924;-77
2022/06/12 16:15:37;;;;;;;;;;;;;;;;;;5039578;28;19912;-77
2022/06/12 16:18:03;;;;;;;;;;;;;;;;;;5044906;28;19960;-76
2022/06/12 16:20:28;;;;;;;;;;;;;;;;;;5035429;28;19943;-76
2022/06/12 16:22:54;;;;;;;;;;;;;;;;;;5031991;28;19913;-80
2022/06/12 16:25:19;;;;;;;;;;;;;;;;;;5034796;28;19913;-77
2022/06/12 16:27:44;;;;;;;;;;;;;;;;;;5049017;28;19947;-75
2022/06/12 16:30:10;;;;;;;;;;;;;;;;;;5015629;28;19928;-75
2022/06/12 16:32:36;;;;;;;;;;;;;;;;;;5041378;28;20018;-76
2022/06/12 16:35:01;;;;;;;;;;;;;;;;;;5048166;28;19929;-76
2022/06/12 16:37:26;;;;;;;;;;;;;;;;;;5014663;28;19920;-76
2022/06/12 16:39:52;;;;;;;;;;;;;;;;;;5034679;28;20271;-78
2022/06/12 16:42:17;;;;;;;;;;;;;;;;;;5034347;28;19925;-76
2022/06/12 16:44:42;;;;;;;;;;;;;;;;;;5017455;28;20007;-76
2022/06/12 16:47:08;;;;;;;;;;;;;;;;;;5031650;28;19921;-76
2022/06/12 16:49:33;;;;;;;;;;;;;;;;;;5032641;28;19959;-76
2022/06/12 16:51:59;;;;;;;;;;;;;;;;;;5041917;28;20482;-77
2022/06/12 16:54:24;;;;;;;;;;;;;;;;;;5017408;28;19935;-75
2022/06/12 16:56:50;;;;;;;;;;;;;;;;;;5038674;28;20330;-76
2022/06/12 16:59:15;;;;;;;;;;;;;;;;;;5031355;28;19924;-76
2022/06/12 17:01:42;;;;;;;;;;;;;;;;;;5048893;28;20280;-75